createdAt,value
2023-03-21T00:00:33.383Z,8.81
2023-03-21T00:03:01.628Z,8.79
2023-03-21T00:05:29.986Z,8.76
2023-03-21T00:07:59.503Z,8.70
2023-03-21T00:10:39.513Z,8.63
2023-03-21T00:13:09.193Z,8.62
2023-03-21T00:16:03.984Z,8.58
2023-03-21T00:18:36.769Z,8.53
2023-03-21T00:21:37.559Z,8.56
2023-03-21T00:23:55.260Z,8.51
2023-03-21T00:26:23.664Z,8.47
2023-03-21T00:28:52.157Z,8.40
2023-03-21T00:31:23.211Z,8.38
2023-03-21T00:33:51.471Z,8.34
2023-03-21T00:36:19.516Z,8.38
2023-03-21T00:38:47.469Z,8.38
2023-03-21T00:41:26.391Z,8.37
2023-03-21T00:44:04.154Z,8.35
2023-03-21T00:46:45.206Z,8.32
2023-03-21T00:49:15.070Z,8.26
2023-03-21T00:51:43.732Z,8.22
2023-03-21T00:54:13.575Z,8.24
2023-03-21T00:56:42.333Z,8.26
2023-03-21T00:59:11.150Z,8.29
2023-03-21T01:01:40.477Z,8.27
2023-03-21T01:04:13.652Z,8.24
2023-03-21T01:06:43.607Z,8.21
2023-03-21T01:09:14.724Z,8.23
2023-03-21T01:11:43.200Z,8.25
2023-03-21T01:14:23.283Z,8.28
2023-03-21T01:16:54.069Z,8.24
2023-03-21T01:19:40.701Z,8.23
2023-03-21T01:22:12.820Z,8.14
2023-03-21T01:24:52.400Z,8.21
2023-03-21T01:27:22.398Z,8.22
2023-03-21T01:29:50.581Z,8.20
2023-03-21T01:32:19.860Z,8.18
2023-03-21T01:34:47.846Z,8.17
2023-03-21T01:37:17.773Z,8.20
2023-03-21T01:39:49.456Z,8.22
2023-03-21T01:42:17.446Z,8.16
2023-03-21T01:44:55.457Z,8.18
2023-03-21T01:47:25.819Z,8.21
2023-03-21T01:50:06.262Z,8.22
2023-03-21T01:52:53.096Z,8.16
2023-03-21T01:55:29.522Z,8.12
2023-03-21T01:58:32.003Z,8.03
2023-03-21T02:01:23.816Z,7.99
2023-03-21T02:03:57.375Z,8.01
2023-03-21T02:06:52.111Z,7.99
2023-03-21T02:09:49.920Z,7.98
2023-03-21T02:12:21.685Z,7.95
2023-03-21T02:14:51.925Z,7.96
2023-03-21T02:17:42.420Z,7.92
2023-03-21T02:20:51.195Z,7.93
2023-03-21T02:23:54.634Z,7.90
2023-03-21T02:26:52.472Z,7.94
2023-03-21T02:29:57.919Z,8.00
2023-03-21T02:32:41.532Z,8.01
2023-03-21T02:35:39.120Z,7.95
2023-03-21T02:38:18.377Z,7.89
2023-03-21T02:40:54.678Z,7.86
2023-03-21T02:43:35.281Z,7.89
2023-03-21T02:46:08.303Z,7.91
2023-03-21T02:48:50.199Z,7.87
2023-03-21T02:51:23.497Z,7.87
2023-03-21T02:54:24.639Z,7.84
2023-03-21T02:56:47.191Z,7.82
2023-03-21T02:59:17.511Z,7.83
2023-03-21T03:01:46.100Z,7.79
2023-03-21T03:04:22.116Z,7.73
2023-03-21T03:07:09.589Z,7.66
2023-03-21T03:09:53.043Z,7.68
2023-03-21T03:12:31.042Z,7.69
2023-03-21T03:15:09.903Z,7.62
2023-03-21T03:17:49.516Z,7.56
2023-03-21T03:20:28.197Z,7.52
2023-03-21T03:23:06.245Z,7.55
2023-03-21T03:25:43.428Z,7.57
2023-03-21T03:28:18.049Z,7.57
2023-03-21T03:31:01.141Z,7.56
2023-03-21T03:33:41.499Z,7.56
2023-03-21T03:36:25.051Z,7.58
2023-03-21T03:39:04.668Z,7.55
2023-03-21T03:42:04.166Z,7.51
2023-03-21T03:44:33.849Z,7.51
2023-03-21T03:47:10.573Z,7.56
2023-03-21T03:49:44.078Z,7.62
2023-03-21T03:52:19.934Z,7.61
2023-03-21T03:54:53.886Z,7.57
2023-03-21T03:57:27.364Z,7.57
2023-03-21T03:59:57.030Z,7.58
2023-03-21T04:02:45.291Z,7.56
2023-03-21T04:05:21.479Z,7.53
2023-03-21T04:07:50.879Z,7.55
2023-03-21T04:10:22.681Z,7.58
2023-03-21T04:12:52.102Z,7.59
2023-03-21T04:15:28.758Z,7.58
2023-03-21T04:18:04.792Z,7.56
2023-03-21T04:20:37.406Z,7.51
2023-03-21T04:23:07.729Z,7.54
2023-03-21T04:25:38.614Z,7.56
2023-03-21T04:28:09.944Z,7.53
2023-03-21T04:30:58.753Z,7.50
2023-03-21T04:33:29.281Z,7.51
2023-03-21T04:35:59.136Z,7.54
2023-03-21T04:38:30.875Z,7.51
2023-03-21T04:41:03.285Z,7.47
2023-03-21T04:43:33.207Z,7.53
2023-03-21T04:46:01.176Z,7.56
2023-03-21T04:48:29.344Z,7.52
2023-03-21T04:50:57.861Z,7.37
2023-03-21T04:53:25.864Z,7.39
2023-03-21T04:55:55.573Z,7.45
2023-03-21T04:58:24.155Z,7.45
2023-03-21T05:00:53.600Z,7.30
2023-03-21T05:03:22.070Z,7.29
2023-03-21T05:05:50.883Z,7.32
2023-03-21T05:08:20.129Z,7.36
2023-03-21T05:10:48.319Z,7.37
2023-03-21T05:13:16.397Z,7.33
2023-03-21T05:15:44.297Z,7.32
2023-03-21T05:18:13.680Z,7.34
2023-03-21T05:21:00.079Z,7.30
2023-03-21T05:23:31.819Z,7.29
2023-03-21T05:26:00.087Z,7.27
2023-03-21T05:28:40.944Z,7.24
2023-03-21T05:31:10.008Z,7.23
2023-03-21T05:33:39.331Z,7.23
2023-03-21T05:36:08.063Z,7.23
2023-03-21T05:38:36.046Z,7.23
2023-03-21T05:41:05.377Z,7.23
2023-03-21T05:43:33.605Z,7.24
2023-03-21T05:46:01.887Z,7.24
2023-03-21T05:48:32.391Z,7.27
2023-03-21T05:51:11.210Z,7.26
2023-03-21T05:53:39.377Z,7.21
2023-03-21T05:56:08.906Z,7.20
2023-03-21T05:58:59.614Z,7.20
2023-03-21T06:01:28.230Z,7.25
2023-03-21T06:04:08.686Z,7.29
2023-03-21T06:06:38.759Z,7.33
2023-03-21T06:09:06.799Z,7.30
2023-03-21T06:11:37.139Z,7.28
2023-03-21T06:14:28.297Z,7.25
2023-03-21T06:17:10.470Z,7.27
2023-03-21T06:19:44.714Z,7.31
2023-03-21T06:22:20.552Z,7.30
2023-03-21T06:24:48.721Z,7.36
2023-03-21T06:27:19.562Z,7.39
2023-03-21T06:29:54.129Z,7.45
2023-03-21T06:32:23.129Z,7.50
2023-03-21T06:34:56.281Z,7.54
2023-03-21T06:37:26.907Z,7.57
2023-03-21T06:39:55.720Z,7.59
2023-03-21T06:42:24.563Z,7.62
2023-03-21T06:44:57.390Z,7.74
2023-03-21T06:47:25.381Z,7.81
2023-03-21T06:49:53.262Z,7.87
2023-03-21T06:52:21.261Z,7.93
2023-03-21T06:54:52.062Z,7.97
2023-03-21T06:57:22.018Z,8.01
2023-03-21T06:59:51.115Z,7.99
2023-03-21T07:02:21.681Z,8.01
2023-03-21T07:05:02.334Z,7.94
2023-03-21T07:07:32.003Z,8.02
2023-03-21T07:10:01.332Z,8.10
2023-03-21T07:12:35.871Z,8.14
2023-03-21T07:15:25.020Z,8.06
2023-03-21T07:17:53.173Z,8.04
2023-03-21T07:20:21.142Z,8.11
2023-03-21T07:22:50.064Z,8.32
2023-03-21T07:25:20.578Z,8.39
2023-03-21T07:27:49.433Z,8.40
2023-03-21T07:30:17.870Z,8.43
2023-03-21T07:32:47.716Z,8.45
2023-03-21T07:35:18.630Z,8.47
2023-03-21T07:37:46.655Z,8.52
2023-03-21T07:40:17.478Z,8.59
2023-03-21T07:42:49.844Z,8.75
2023-03-21T07:45:28.938Z,8.74
2023-03-21T07:47:56.890Z,8.71
2023-03-21T07:50:25.157Z,8.82
2023-03-21T07:52:53.085Z,8.93
2023-03-21T07:55:21.411Z,9.08
2023-03-21T07:57:52.722Z,9.19
2023-03-21T08:00:23.846Z,9.22
2023-03-21T08:02:57.939Z,9.18
2023-03-21T08:05:29.267Z,9.14
2023-03-21T08:07:57.366Z,9.14
2023-03-21T08:10:25.344Z,9.38
2023-03-21T08:12:54.863Z,9.58
2023-03-21T08:15:23.122Z,9.73
2023-03-21T08:17:51.117Z,9.87
2023-03-21T08:20:22.029Z,9.88
2023-03-21T08:22:50.904Z,9.99
2023-03-21T08:25:20.319Z,10.03
2023-03-21T08:27:48.484Z,10.07
2023-03-21T08:30:19.932Z,10.09
2023-03-21T08:32:48.115Z,10.07
2023-03-21T08:35:18.856Z,9.98
2023-03-21T08:37:47.027Z,9.95
2023-03-21T08:40:17.011Z,10.05
2023-03-21T08:42:46.546Z,10.02
2023-03-21T08:45:16.122Z,9.97
2023-03-21T08:47:45.873Z,9.94
2023-03-21T08:50:16.361Z,9.88
2023-03-21T08:52:44.365Z,9.95
2023-03-21T08:55:13.742Z,9.98
2023-03-21T08:57:41.798Z,9.97
2023-03-21T09:00:14.666Z,9.96
2023-03-21T09:02:43.828Z,10.07
2023-03-21T09:05:13.705Z,10.33
2023-03-21T09:07:42.849Z,10.59
2023-03-21T09:10:22.182Z,10.58
2023-03-21T09:12:51.691Z,10.54
2023-03-21T09:15:21.821Z,10.63
2023-03-21T09:17:52.556Z,10.61
2023-03-21T09:20:30.491Z,10.67
2023-03-21T09:22:58.797Z,10.70
2023-03-21T09:25:31.378Z,10.69
2023-03-21T09:28:00.379Z,10.81
2023-03-21T09:30:28.708Z,10.98
2023-03-21T09:32:56.989Z,11.16
2023-03-21T09:35:27.125Z,11.12
2023-03-21T09:37:58.994Z,11.11
2023-03-21T09:40:41.570Z,11.05
2023-03-21T09:43:21.935Z,11.14
2023-03-21T09:45:56.167Z,11.14
2023-03-21T09:48:39.675Z,11.12
2023-03-21T09:51:18.035Z,11.27
2023-03-21T09:53:50.151Z,11.33
2023-03-21T09:56:19.172Z,11.50
2023-03-21T09:58:53.102Z,11.52
2023-03-21T10:01:28.378Z,11.64
2023-03-21T10:03:58.968Z,11.63
2023-03-21T10:06:30.572Z,11.64
2023-03-21T10:09:01.807Z,11.72
2023-03-21T10:14:06.866Z,11.74
2023-03-21T10:16:38.603Z,11.84
2023-03-21T10:19:13.004Z,11.86
2023-03-21T10:22:03.328Z,11.92
2023-03-21T10:24:34.541Z,11.90
2023-03-21T10:27:04.528Z,11.78
2023-03-21T10:29:38.056Z,11.97
2023-03-21T10:32:09.786Z,12.17
2023-03-21T10:34:41.816Z,12.24
2023-03-21T10:37:14.008Z,12.20
2023-03-21T10:39:44.639Z,12.26
2023-03-21T10:42:20.319Z,12.34
2023-03-21T10:44:49.916Z,12.49
2023-03-21T10:47:22.103Z,12.56
2023-03-21T10:50:06.885Z,12.55
2023-03-21T10:52:39.315Z,12.47
2023-03-21T10:55:19.120Z,12.44
2023-03-21T10:57:47.936Z,12.51
2023-03-21T11:00:22.542Z,12.62
2023-03-21T11:02:52.768Z,12.87
2023-03-21T11:05:24.090Z,13.03
2023-03-21T11:08:01.489Z,13.17
2023-03-21T11:10:32.528Z,13.20
2023-03-21T11:13:06.503Z,13.24
2023-03-21T11:15:42.406Z,13.31
2023-03-21T11:18:20.800Z,13.35
2023-03-21T11:20:54.484Z,13.47
2023-03-21T11:23:28.115Z,13.53
2023-03-21T11:25:58.300Z,13.58
2023-03-21T11:28:33.302Z,13.62
2023-03-21T11:31:03.515Z,13.66
2023-03-21T11:33:35.583Z,13.78
2023-03-21T11:36:06.052Z,13.96
2023-03-21T11:38:38.913Z,13.99
2023-03-21T11:41:07.617Z,14.10
2023-03-21T11:43:37.721Z,14.20
2023-03-21T11:46:11.029Z,14.24
2023-03-21T11:48:42.472Z,14.21
2023-03-21T11:51:22.391Z,14.04
2023-03-21T11:54:01.092Z,14.13
2023-03-21T11:56:33.332Z,14.17
2023-03-21T11:59:15.989Z,14.21
2023-03-21T12:01:57.290Z,14.41
2023-03-21T12:04:42.394Z,14.40
2023-03-21T12:07:40.422Z,14.58
2023-03-21T12:10:28.237Z,14.70
2023-03-21T12:13:06.505Z,14.92
2023-03-21T12:15:40.718Z,14.94
2023-03-21T12:18:35.227Z,14.92
2023-03-21T12:21:08.125Z,14.89
2023-03-21T12:23:55.938Z,14.83
2023-03-21T12:26:28.231Z,14.89
2023-03-21T12:29:27.977Z,14.79
2023-03-21T12:32:06.107Z,14.84
2023-03-21T12:34:58.749Z,14.98
2023-03-21T12:37:38.256Z,15.11
2023-03-21T12:40:18.448Z,15.15
2023-03-21T12:43:20.738Z,15.10
2023-03-21T12:45:53.247Z,15.10
2023-03-21T12:48:28.977Z,15.19
2023-03-21T12:51:02.170Z,15.33
2023-03-21T12:53:53.099Z,15.06
2023-03-21T12:56:24.900Z,15.06
2023-03-21T12:58:59.000Z,15.13
2023-03-21T13:01:31.452Z,15.30
2023-03-21T13:04:10.589Z,15.12
2023-03-21T13:06:39.718Z,15.17
2023-03-21T13:09:16.067Z,15.23
2023-03-21T13:11:46.914Z,15.34
2023-03-21T13:14:20.404Z,15.49
2023-03-21T13:16:56.110Z,15.55
2023-03-21T13:19:31.091Z,15.64
2023-03-21T13:22:08.126Z,15.74
2023-03-21T13:24:43.731Z,15.68
2023-03-21T13:27:24.829Z,15.68
2023-03-21T13:29:55.391Z,15.77
2023-03-21T13:32:31.099Z,15.80
2023-03-21T13:35:01.916Z,15.71
2023-03-21T13:37:33.821Z,15.63
2023-03-21T13:40:09.356Z,15.63
2023-03-21T13:42:45.086Z,15.64
2023-03-21T13:45:23.757Z,15.49
2023-03-21T13:47:57.554Z,15.56
2023-03-21T13:50:36.537Z,15.74
2023-03-21T13:53:39.055Z,15.89
2023-03-21T13:56:22.075Z,15.98
2023-03-21T13:58:55.585Z,16.04
2023-03-21T14:01:29.191Z,16.16
2023-03-21T14:04:07.433Z,16.27
2023-03-21T14:06:42.847Z,16.40
2023-03-21T14:09:16.082Z,16.17
2023-03-21T14:11:47.066Z,15.98
2023-03-21T14:14:15.869Z,15.97
2023-03-21T14:16:45.578Z,15.98
2023-03-21T14:19:14.977Z,16.13
2023-03-21T14:21:50.389Z,15.88
2023-03-21T14:24:19.575Z,15.93
2023-03-21T14:26:50.387Z,15.96
2023-03-21T14:29:26.584Z,15.92
2023-03-21T14:31:56.258Z,16.05
2023-03-21T14:34:28.299Z,16.32
2023-03-21T14:36:58.686Z,16.32
2023-03-21T14:39:29.894Z,16.40
2023-03-21T14:42:03.460Z,16.22
2023-03-21T14:44:44.209Z,16.28
2023-03-21T14:47:22.863Z,16.30
2023-03-21T14:49:52.374Z,16.48
2023-03-21T14:52:24.990Z,16.62
2023-03-21T14:54:54.419Z,16.64
2023-03-21T14:57:26.187Z,16.51
2023-03-21T14:59:56.185Z,16.43
2023-03-21T15:02:27.572Z,16.34
2023-03-21T15:04:59.250Z,15.96
2023-03-21T15:07:30.358Z,15.95
2023-03-21T15:10:02.078Z,16.04
2023-03-21T15:12:30.013Z,16.15
2023-03-21T15:14:58.270Z,16.30
2023-03-21T15:17:27.509Z,16.08
2023-03-21T15:19:56.824Z,15.96
2023-03-21T15:22:31.787Z,15.80
2023-03-21T15:25:02.908Z,15.90
2023-03-21T15:27:34.175Z,15.97
2023-03-21T15:30:02.202Z,16.11
2023-03-21T15:32:30.464Z,16.14
2023-03-21T15:35:08.111Z,16.12
2023-03-21T15:37:38.029Z,16.02
2023-03-21T15:40:11.440Z,16.00
2023-03-21T15:42:41.329Z,15.99
2023-03-21T15:45:18.113Z,15.92
2023-03-21T15:47:54.261Z,15.99
2023-03-21T15:50:35.502Z,16.08
2023-03-21T15:53:07.669Z,16.16
2023-03-21T15:55:43.624Z,16.13
2023-03-21T15:58:18.122Z,16.07
2023-03-21T16:00:54.733Z,16.11
2023-03-21T16:03:27.287Z,16.08
2023-03-21T16:06:11.039Z,16.03
2023-03-21T16:08:44.656Z,15.96
2023-03-21T16:11:18.882Z,15.92
2023-03-21T16:13:46.951Z,15.93
2023-03-21T16:16:17.969Z,15.90
2023-03-21T16:18:45.978Z,15.81
2023-03-21T16:21:18.182Z,15.76
2023-03-21T16:23:46.358Z,15.72
2023-03-21T16:26:16.498Z,15.68
2023-03-21T16:28:45.003Z,15.59
2023-03-21T16:31:15.539Z,15.46
2023-03-21T16:33:44.010Z,15.44
2023-03-21T16:36:17.893Z,15.39
2023-03-21T16:38:47.025Z,15.40
2023-03-21T16:41:15.791Z,15.38
2023-03-21T16:43:44.038Z,15.33
2023-03-21T16:46:14.784Z,15.28
2023-03-21T16:48:43.653Z,15.25
2023-03-21T16:51:16.128Z,15.13
2023-03-21T16:53:44.179Z,15.06
2023-03-21T16:56:16.518Z,14.97
2023-03-21T16:58:44.869Z,15.00
2023-03-21T17:01:19.183Z,15.00
2023-03-21T17:03:47.769Z,15.01
2023-03-21T17:06:19.254Z,15.08
2023-03-21T17:08:47.887Z,15.14
2023-03-21T17:11:20.022Z,15.19
2023-03-21T17:13:48.514Z,15.22
2023-03-21T17:16:18.441Z,15.07
2023-03-21T17:18:46.632Z,14.94
2023-03-21T17:21:17.825Z,14.79
2023-03-21T17:23:46.164Z,14.69
2023-03-21T17:26:15.067Z,14.73
2023-03-21T17:28:43.118Z,14.67
2023-03-21T17:31:14.896Z,14.56
2023-03-21T17:33:43.151Z,14.52
2023-03-21T17:36:15.028Z,14.46
2023-03-21T17:38:45.853Z,14.47
2023-03-21T17:41:14.821Z,14.49
2023-03-21T17:43:42.851Z,14.49
2023-03-21T17:46:14.125Z,14.45
2023-03-21T17:48:42.237Z,14.38
2023-03-21T17:51:12.785Z,14.28
2023-03-21T17:53:40.776Z,14.23
2023-03-21T17:56:25.818Z,14.11
2023-03-21T17:58:54.224Z,14.05
2023-03-21T18:01:23.316Z,14.02
2023-03-21T18:03:51.432Z,13.96
2023-03-21T18:06:21.708Z,13.96
2023-03-21T18:08:51.120Z,13.93
2023-03-21T18:11:22.166Z,13.91
2023-03-21T18:13:50.173Z,13.90
2023-03-21T18:16:19.801Z,13.85
2023-03-21T18:18:47.830Z,13.81
2023-03-21T18:21:18.918Z,13.76
2023-03-21T18:23:48.654Z,13.65
2023-03-21T18:26:18.988Z,13.53
2023-03-21T18:29:34.246Z,13.41
2023-03-21T18:31:38.236Z,13.30
2023-03-21T18:34:06.211Z,13.21
2023-03-21T18:36:34.580Z,13.19
2023-03-21T18:39:05.084Z,13.10
2023-03-21T18:41:33.036Z,13.00
2023-03-21T18:44:14.826Z,12.94
2023-03-21T18:46:48.186Z,12.86
2023-03-21T18:52:05.551Z,12.67
2023-03-21T18:54:33.971Z,12.60
2023-03-21T18:59:52.038Z,12.50
2023-03-21T19:02:20.059Z,12.42
2023-03-21T19:04:47.988Z,12.35
2023-03-21T19:07:16.559Z,12.39
2023-03-21T19:10:09.409Z,12.56
2023-03-21T19:12:33.222Z,12.62
2023-03-21T19:15:02.505Z,12.69
2023-03-21T19:20:19.651Z,12.64
2023-03-21T19:22:47.972Z,12.50
2023-03-21T19:25:17.138Z,12.36
2023-03-21T19:27:45.769Z,12.28
2023-03-21T19:30:16.506Z,12.30
2023-03-21T19:32:45.027Z,12.31
2023-03-21T19:35:14.257Z,12.32
2023-03-21T19:37:42.307Z,12.30
2023-03-21T19:40:11.196Z,12.27
2023-03-21T19:42:39.326Z,12.29
2023-03-21T19:45:08.357Z,12.27
2023-03-21T19:47:37.670Z,12.15
2023-03-21T19:52:54.170Z,11.99
2023-03-21T19:55:22.107Z,11.98
2023-03-21T19:57:50.288Z,11.98
2023-03-21T20:00:21.021Z,12.02
2023-03-21T20:02:51.637Z,12.00
2023-03-21T20:05:20.567Z,11.88
2023-03-21T20:07:48.897Z,11.81
2023-03-21T20:10:16.864Z,11.79
2023-03-21T20:12:44.764Z,11.77
2023-03-21T20:15:19.137Z,11.75
2023-03-21T20:17:50.923Z,11.73
2023-03-21T20:20:19.835Z,11.72
2023-03-21T20:23:11.005Z,11.70
2023-03-21T20:25:43.125Z,11.66
2023-03-21T20:28:28.152Z,11.64
2023-03-21T20:31:00.281Z,11.64
2023-03-21T20:33:30.418Z,11.65
2023-03-21T20:38:51.433Z,11.55
2023-03-21T20:41:19.742Z,11.57
2023-03-21T20:44:28.490Z,11.54
2023-03-21T20:46:37.704Z,11.52
2023-03-21T20:49:07.717Z,11.50
2023-03-21T20:54:24.149Z,11.48
2023-03-21T20:56:52.172Z,11.46
2023-03-21T20:59:26.629Z,11.48
2023-03-21T21:01:57.191Z,11.51
2023-03-21T21:07:18.169Z,11.48
2023-03-21T21:09:46.978Z,11.41
2023-03-21T21:12:16.441Z,11.37
2023-03-21T21:14:45.549Z,11.30
2023-03-21T21:20:12.305Z,11.29
2023-03-21T21:22:42.851Z,11.23
2023-03-21T21:25:14.308Z,11.19
2023-03-21T21:27:52.632Z,11.18
2023-03-21T21:30:21.207Z,11.14
2023-03-21T21:32:49.538Z,11.12
2023-03-21T21:35:20.559Z,11.15
2023-03-21T21:37:48.876Z,11.18
2023-03-21T21:40:20.516Z,11.17
2023-03-21T21:42:48.760Z,11.14
2023-03-21T21:45:16.981Z,11.10
2023-03-21T21:47:45.909Z,11.10
2023-03-21T21:50:14.434Z,11.11
2023-03-21T21:52:52.481Z,11.04
2023-03-21T21:55:20.528Z,10.97
2023-03-21T21:57:50.225Z,10.97
2023-03-21T22:00:20.265Z,10.99
2023-03-21T22:02:48.284Z,11.04
2023-03-21T22:05:16.508Z,11.06
2023-03-21T22:07:46.525Z,11.12
2023-03-21T22:10:14.709Z,11.14
2023-03-21T22:12:42.742Z,11.10
2023-03-21T22:15:12.191Z,11.03
2023-03-21T22:17:40.683Z,10.93
2023-03-21T22:20:12.086Z,10.89
2023-03-21T22:22:40.380Z,10.81
2023-03-21T22:25:12.762Z,10.72
2023-03-21T22:27:41.071Z,10.66
2023-03-21T22:30:13.730Z,10.65
2023-03-21T22:32:42.611Z,10.60
2023-03-21T22:35:11.590Z,10.54
2023-03-21T22:37:41.949Z,10.56
2023-03-21T22:40:13.746Z,10.63
2023-03-21T22:42:42.398Z,10.66
2023-03-21T22:45:12.328Z,10.68
2023-03-21T22:47:40.774Z,10.67
2023-03-21T22:50:09.825Z,10.64
2023-03-21T22:52:37.765Z,10.71
2023-03-21T22:55:07.076Z,10.80
2023-03-21T22:57:36.397Z,10.71
2023-03-21T23:00:13.052Z,10.72
2023-03-21T23:02:41.530Z,10.76
2023-03-21T23:05:09.779Z,10.80
2023-03-21T23:07:37.743Z,10.84
2023-03-21T23:10:06.313Z,10.80
2023-03-21T23:12:34.344Z,10.74
2023-03-21T23:15:03.572Z,10.67
2023-03-21T23:17:33.790Z,10.63
2023-03-21T23:20:02.101Z,10.60
2023-03-21T23:22:31.394Z,10.58
2023-03-21T23:24:59.406Z,10.54
2023-03-21T23:27:27.688Z,10.54
2023-03-21T23:29:56.647Z,10.56
2023-03-21T23:32:25.963Z,10.57
2023-03-21T23:34:55.401Z,10.51
2023-03-21T23:37:24.924Z,10.06
2023-03-21T23:39:55.186Z,9.89
2023-03-21T23:42:23.151Z,10.00
2023-03-21T23:44:51.038Z,10.08
2023-03-21T23:47:18.943Z,10.09
2023-03-21T23:49:50.115Z,10.13
2023-03-21T23:52:18.147Z,10.15
2023-03-21T23:54:46.239Z,10.17
2023-03-21T23:57:14.166Z,10.13
2023-03-21T23:59:42.048Z,10.13
